sensor_id;sensor_type;location;lat;lon;timestamp;temperature;humidity
19200;DHT22;9732;52.498;5.408;2023-05-07T00:00:19;15.60;99.90
19200;DHT22;9732;52.498;5.408;2023-05-07T00:02:46;15.60;99.90
19200;DHT22;9732;52.498;5.408;2023-05-07T00:05:15;15.60;99.90
19200;DHT22;9732;52.498;5.408;2023-05-07T00:07:41;15.60;99.90
19200;DHT22;9732;52.498;5.408;2023-05-07T00:10:09;15.60;99.90
19200;DHT22;9732;52.498;5.408;2023-05-07T00:12:38;15.60;99.90
19200;DHT22;9732;52.498;5.408;2023-05-07T00:15:06;15.60;99.90
19200;DHT22;9732;52.498;5.408;2023-05-07T00:17:33;15.60;99.90
19200;DHT22;9732;52.498;5.408;2023-05-07T00:20:02;15.60;99.90
19200;DHT22;9732;52.498;5.408;2023-05-07T00:22:30;15.50;99.90
19200;DHT22;9732;52.498;5.408;2023-05-07T00:24:58;15.50;99.90
19200;DHT22;9732;52.498;5.408;2023-05-07T00:27:26;15.50;99.90
19200;DHT22;9732;52.498;5.408;2023-05-07T00:29:52;15.50;99.90
19200;DHT22;9732;52.498;5.408;2023-05-07T00:32:20;15.40;99.90
19200;DHT22;9732;52.498;5.408;2023-05-07T00:34:47;15.50;99.90
19200;DHT22;9732;52.498;5.408;2023-05-07T00:37:14;15.50;99.90
19200;DHT22;9732;52.498;5.408;2023-05-07T00:39:44;15.50;99.90
19200;DHT22;9732;52.498;5.408;2023-05-07T00:42:11;15.50;99.90
19200;DHT22;9732;52.498;5.408;2023-05-07T00:44:37;15.50;99.90
19200;DHT22;9732;52.498;5.408;2023-05-07T00:47:05;15.50;99.90
19200;DHT22;9732;52.498;5.408;2023-05-07T00:49:38;15.40;99.90
19200;DHT22;9732;52.498;5.408;2023-05-07T00:52:07;15.30;99.90
19200;DHT22;9732;52.498;5.408;2023-05-07T00:54:34;15.30;99.90
19200;DHT22;9732;52.498;5.408;2023-05-07T00:57:03;15.30;99.90
19200;DHT22;9732;52.498;5.408;2023-05-07T00:59:32;15.30;99.90
19200;DHT22;9732;52.498;5.408;2023-05-07T01:02:00;15.40;99.90
19200;DHT22;9732;52.498;5.408;2023-05-07T01:04:27;15.40;99.90
19200;DHT22;9732;52.498;5.408;2023-05-07T01:06:55;15.40;99.90
19200;DHT22;9732;52.498;5.408;2023-05-07T01:09:23;15.20;99.90
19200;DHT22;9732;52.498;5.408;2023-05-07T01:11:51;15.20;99.90
19200;DHT22;9732;52.498;5.408;2023-05-07T01:14:20;15.10;99.90
19200;DHT22;9732;52.498;5.408;2023-05-07T01:16:47;15.10;99.90
19200;DHT22;9732;52.498;5.408;2023-05-07T01:19:18;15.00;99.90
19200;DHT22;9732;52.498;5.408;2023-05-07T01:21:48;15.00;99.90
19200;DHT22;9732;52.498;5.408;2023-05-07T01:24:17;15.10;99.90
19200;DHT22;9732;52.498;5.408;2023-05-07T01:26:44;15.10;99.90
19200;DHT22;9732;52.498;5.408;2023-05-07T01:29:11;15.10;99.90
19200;DHT22;9732;52.498;5.408;2023-05-07T01:31:41;15.00;99.90
19200;DHT22;9732;52.498;5.408;2023-05-07T01:34:09;15.00;99.90
19200;DHT22;9732;52.498;5.408;2023-05-07T01:36:39;15.00;99.90
19200;DHT22;9732;52.498;5.408;2023-05-07T01:39:07;14.90;99.90
19200;DHT22;9732;52.498;5.408;2023-05-07T01:41:37;14.90;99.90
19200;DHT22;9732;52.498;5.408;2023-05-07T01:44:05;15.00;99.90
19200;DHT22;9732;52.498;5.408;2023-05-07T01:46:33;15.00;99.90
19200;DHT22;9732;52.498;5.408;2023-05-07T01:49:01;15.00;99.90
19200;DHT22;9732;52.498;5.408;2023-05-07T01:51:28;15.00;99.90
19200;DHT22;9732;52.498;5.408;2023-05-07T01:53:55;15.00;99.90
19200;DHT22;9732;52.498;5.408;2023-05-07T01:56:23;15.00;99.90
19200;DHT22;9732;52.498;5.408;2023-05-07T01:58:53;15.00;99.90
19200;DHT22;9732;52.498;5.408;2023-05-07T02:01:20;15.10;99.90
19200;DHT22;9732;52.498;5.408;2023-05-07T02:03:49;15.10;99.90
19200;DHT22;9732;52.498;5.408;2023-05-07T02:06:15;15.10;99.90
19200;DHT22;9732;52.498;5.408;2023-05-07T02:08:43;15.10;99.90
19200;DHT22;9732;52.498;5.408;2023-05-07T02:11:11;15.00;99.90
19200;DHT22;9732;52.498;5.408;2023-05-07T02:13:37;15.00;99.90
19200;DHT22;9732;52.498;5.408;2023-05-07T02:16:06;15.00;99.90
19200;DHT22;9732;52.498;5.408;2023-05-07T02:18:34;15.00;99.90
19200;DHT22;9732;52.498;5.408;2023-05-07T02:21:01;15.00;99.90
19200;DHT22;9732;52.498;5.408;2023-05-07T02:23:28;15.00;99.90
19200;DHT22;9732;52.498;5.408;2023-05-07T02:25:55;14.90;99.90
19200;DHT22;9732;52.498;5.408;2023-05-07T02:28:22;15.00;99.90
19200;DHT22;9732;52.498;5.408;2023-05-07T02:30:49;15.00;99.90
19200;DHT22;9732;52.498;5.408;2023-05-07T02:33:18;14.90;99.90
19200;DHT22;9732;52.498;5.408;2023-05-07T02:35:45;14.90;99.90
19200;DHT22;9732;52.498;5.408;2023-05-07T02:38:12;14.90;99.90
19200;DHT22;9732;52.498;5.408;2023-05-07T02:40:39;14.90;99.90
19200;DHT22;9732;52.498;5.408;2023-05-07T02:43:06;14.90;99.90
19200;DHT22;9732;52.498;5.408;2023-05-07T02:45:33;14.90;99.90
19200;DHT22;9732;52.498;5.408;2023-05-07T02:48:03;14.90;99.90
19200;DHT22;9732;52.498;5.408;2023-05-07T02:50:32;14.90;99.90
19200;DHT22;9732;52.498;5.408;2023-05-07T02:52:59;14.90;99.90
19200;DHT22;9732;52.498;5.408;2023-05-07T02:55:26;15.00;99.90
19200;DHT22;9732;52.498;5.408;2023-05-07T02:57:53;15.00;99.90
19200;DHT22;9732;52.498;5.408;2023-05-07T03:00:21;15.00;99.90
19200;DHT22;9732;52.498;5.408;2023-05-07T03:02:48;14.90;99.90
19200;DHT22;9732;52.498;5.408;2023-05-07T03:05:16;14.90;99.90
19200;DHT22;9732;52.498;5.408;2023-05-07T03:07:44;14.90;99.90
19200;DHT22;9732;52.498;5.408;2023-05-07T03:10:12;14.90;99.90
19200;DHT22;9732;52.498;5.408;2023-05-07T03:12:39;14.80;99.90
19200;DHT22;9732;52.498;5.408;2023-05-07T03:15:07;14.90;99.90
19200;DHT22;9732;52.498;5.408;2023-05-07T03:17:34;14.90;99.90
19200;DHT22;9732;52.498;5.408;2023-05-07T03:20:04;14.80;99.90
19200;DHT22;9732;52.498;5.408;2023-05-07T03:22:31;14.90;99.90
19200;DHT22;9732;52.498;5.408;2023-05-07T03:24:59;14.90;99.90
19200;DHT22;9732;52.498;5.408;2023-05-07T03:27:26;14.90;99.90
19200;DHT22;9732;52.498;5.408;2023-05-07T03:29:53;14.90;99.90
19200;DHT22;9732;52.498;5.408;2023-05-07T03:32:20;14.90;99.90
19200;DHT22;9732;52.498;5.408;2023-05-07T03:34:47;14.80;99.90
19200;DHT22;9732;52.498;5.408;2023-05-07T03:37:14;14.80;99.90
19200;DHT22;9732;52.498;5.408;2023-05-07T03:39:41;14.80;99.90
19200;DHT22;9732;52.498;5.408;2023-05-07T03:42:10;14.80;99.90
19200;DHT22;9732;52.498;5.408;2023-05-07T03:44:37;14.80;99.90
19200;DHT22;9732;52.498;5.408;2023-05-07T03:47:04;14.80;99.90
19200;DHT22;9732;52.498;5.408;2023-05-07T03:49:31;14.80;99.90
19200;DHT22;9732;52.498;5.408;2023-05-07T03:51:58;14.80;99.90
19200;DHT22;9732;52.498;5.408;2023-05-07T03:54:26;14.70;99.90
19200;DHT22;9732;52.498;5.408;2023-05-07T03:56:53;14.70;99.90
19200;DHT22;9732;52.498;5.408;2023-05-07T03:59:21;14.80;99.90
19200;DHT22;9732;52.498;5.408;2023-05-07T04:01:50;14.80;99.90
19200;DHT22;9732;52.498;5.408;2023-05-07T04:04:18;14.80;99.90
19200;DHT22;9732;52.498;5.408;2023-05-07T04:06:45;14.80;99.90
19200;DHT22;9732;52.498;5.408;2023-05-07T04:09:13;14.80;99.90
19200;DHT22;9732;52.498;5.408;2023-05-07T04:11:40;14.90;99.90
19200;DHT22;9732;52.498;5.408;2023-05-07T04:14:07;14.90;99.90
19200;DHT22;9732;52.498;5.408;2023-05-07T04:16:37;14.90;99.90
19200;DHT22;9732;52.498;5.408;2023-05-07T04:19:04;14.80;99.90
19200;DHT22;9732;52.498;5.408;2023-05-07T04:21:31;14.80;99.90
19200;DHT22;9732;52.498;5.408;2023-05-07T04:23:59;14.80;99.90
19200;DHT22;9732;52.498;5.408;2023-05-07T04:26:26;14.80;99.90
19200;DHT22;9732;52.498;5.408;2023-05-07T04:28:53;14.80;99.90
19200;DHT22;9732;52.498;5.408;2023-05-07T04:31:20;14.80;99.90
19200;DHT22;9732;52.498;5.408;2023-05-07T04:33:50;14.80;99.90
19200;DHT22;9732;52.498;5.408;2023-05-07T04:36:18;14.80;99.90
19200;DHT22;9732;52.498;5.408;2023-05-07T04:38:47;14.80;99.90
19200;DHT22;9732;52.498;5.408;2023-05-07T04:41:14;14.80;99.90
19200;DHT22;9732;52.498;5.408;2023-05-07T04:43:42;14.80;99.90
19200;DHT22;9732;52.498;5.408;2023-05-07T04:46:10;14.80;99.90
19200;DHT22;9732;52.498;5.408;2023-05-07T04:48:37;14.80;99.90
19200;DHT22;9732;52.498;5.408;2023-05-07T04:51:12;14.80;99.90
19200;DHT22;9732;52.498;5.408;2023-05-07T04:53:39;14.80;99.90
19200;DHT22;9732;52.498;5.408;2023-05-07T04:56:07;14.90;99.90
19200;DHT22;9732;52.498;5.408;2023-05-07T04:58:34;14.90;99.90
19200;DHT22;9732;52.498;5.408;2023-05-07T05:01:01;14.90;99.90
19200;DHT22;9732;52.498;5.408;2023-05-07T05:03:28;14.90;99.90
19200;DHT22;9732;52.498;5.408;2023-05-07T05:05:56;14.90;99.90
19200;DHT22;9732;52.498;5.408;2023-05-07T05:08:26;14.90;99.90
19200;DHT22;9732;52.498;5.408;2023-05-07T05:10:54;14.90;99.90
19200;DHT22;9732;52.498;5.408;2023-05-07T05:13:20;14.90;99.90
19200;DHT22;9732;52.498;5.408;2023-05-07T05:15:48;14.90;99.90
19200;DHT22;9732;52.498;5.408;2023-05-07T05:18:16;14.90;99.90
19200;DHT22;9732;52.498;5.408;2023-05-07T05:20:43;14.80;99.90
19200;DHT22;9732;52.498;5.408;2023-05-07T05:23:10;14.80;99.90
19200;DHT22;9732;52.498;5.408;2023-05-07T05:25:39;14.90;99.90
19200;DHT22;9732;52.498;5.408;2023-05-07T05:28:06;14.90;99.90
19200;DHT22;9732;52.498;5.408;2023-05-07T05:30:34;14.90;99.90
19200;DHT22;9732;52.498;5.408;2023-05-07T05:33:02;14.90;99.90
19200;DHT22;9732;52.498;5.408;2023-05-07T05:35:29;14.90;99.90
19200;DHT22;9732;52.498;5.408;2023-05-07T05:37:56;14.90;99.90
19200;DHT22;9732;52.498;5.408;2023-05-07T05:40:24;14.90;99.90
19200;DHT22;9732;52.498;5.408;2023-05-07T05:42:52;15.00;99.90
19200;DHT22;9732;52.498;5.408;2023-05-07T05:45:19;15.00;99.90
19200;DHT22;9732;52.498;5.408;2023-05-07T05:47:47;15.00;99.90
19200;DHT22;9732;52.498;5.408;2023-05-07T05:50:13;15.10;99.90
19200;DHT22;9732;52.498;5.408;2023-05-07T05:52:40;15.10;99.90
19200;DHT22;9732;52.498;5.408;2023-05-07T05:55:09;15.10;99.90
19200;DHT22;9732;52.498;5.408;2023-05-07T05:57:36;15.10;99.90
19200;DHT22;9732;52.498;5.408;2023-05-07T06:00:06;15.20;99.90
19200;DHT22;9732;52.498;5.408;2023-05-07T06:02:33;15.10;99.90
19200;DHT22;9732;52.498;5.408;2023-05-07T06:05:00;15.10;99.90
19200;DHT22;9732;52.498;5.408;2023-05-07T06:07:28;15.10;99.90
19200;DHT22;9732;52.498;5.408;2023-05-07T06:09:55;15.20;99.90
19200;DHT22;9732;52.498;5.408;2023-05-07T06:12:22;15.30;99.90
19200;DHT22;9732;52.498;5.408;2023-05-07T06:14:49;15.20;99.90
19200;DHT22;9732;52.498;5.408;2023-05-07T06:17:18;15.30;99.90
19200;DHT22;9732;52.498;5.408;2023-05-07T06:19:45;15.30;99.90
19200;DHT22;9732;52.498;5.408;2023-05-07T06:22:11;15.40;99.90
19200;DHT22;9732;52.498;5.408;2023-05-07T06:24:39;15.40;99.90
19200;DHT22;9732;52.498;5.408;2023-05-07T06:27:05;15.40;99.90
19200;DHT22;9732;52.498;5.408;2023-05-07T06:29:32;15.30;99.90
19200;DHT22;9732;52.498;5.408;2023-05-07T06:32:12;15.40;99.90
19200;DHT22;9732;52.498;5.408;2023-05-07T06:34:41;15.50;99.90
19200;DHT22;9732;52.498;5.408;2023-05-07T06:37:07;15.30;99.90
19200;DHT22;9732;52.498;5.408;2023-05-07T06:39:35;15.50;99.90
19200;DHT22;9732;52.498;5.408;2023-05-07T06:42:03;15.50;99.90
19200;DHT22;9732;52.498;5.408;2023-05-07T06:44:30;15.60;99.90
19200;DHT22;9732;52.498;5.408;2023-05-07T06:46:57;15.70;99.90
19200;DHT22;9732;52.498;5.408;2023-05-07T06:49:24;15.70;99.90
19200;DHT22;9732;52.498;5.408;2023-05-07T06:51:52;15.70;99.90
19200;DHT22;9732;52.498;5.408;2023-05-07T06:54:19;15.70;99.90
19200;DHT22;9732;52.498;5.408;2023-05-07T06:56:46;15.70;99.90
19200;DHT22;9732;52.498;5.408;2023-05-07T06:59:16;15.60;99.90
19200;DHT22;9732;52.498;5.408;2023-05-07T07:01:43;15.60;99.90
19200;DHT22;9732;52.498;5.408;2023-05-07T07:04:10;15.60;99.90
19200;DHT22;9732;52.498;5.408;2023-05-07T07:06:37;15.60;99.90
19200;DHT22;9732;52.498;5.408;2023-05-07T07:09:06;15.60;99.90
19200;DHT22;9732;52.498;5.408;2023-05-07T07:11:33;15.70;99.90
19200;DHT22;9732;52.498;5.408;2023-05-07T07:14:01;15.60;99.90
19200;DHT22;9732;52.498;5.408;2023-05-07T07:16:27;15.70;99.90
19200;DHT22;9732;52.498;5.408;2023-05-07T07:18:57;15.70;99.90
19200;DHT22;9732;52.498;5.408;2023-05-07T07:21:25;15.80;99.90
19200;DHT22;9732;52.498;5.408;2023-05-07T07:23:52;15.90;99.90
19200;DHT22;9732;52.498;5.408;2023-05-07T07:26:21;16.00;99.90
19200;DHT22;9732;52.498;5.408;2023-05-07T07:28:48;16.10;99.90
19200;DHT22;9732;52.498;5.408;2023-05-07T07:31:15;16.00;99.90
19200;DHT22;9732;52.498;5.408;2023-05-07T07:33:43;16.00;99.90
19200;DHT22;9732;52.498;5.408;2023-05-07T07:36:09;16.00;99.90
19200;DHT22;9732;52.498;5.408;2023-05-07T07:38:37;16.00;99.90
19200;DHT22;9732;52.498;5.408;2023-05-07T07:41:04;16.00;99.90
19200;DHT22;9732;52.498;5.408;2023-05-07T07:43:34;16.10;99.90
19200;DHT22;9732;52.498;5.408;2023-05-07T07:46:01;16.20;99.90
19200;DHT22;9732;52.498;5.408;2023-05-07T07:48:29;16.40;99.90
19200;DHT22;9732;52.498;5.408;2023-05-07T07:50:56;16.70;99.90
19200;DHT22;9732;52.498;5.408;2023-05-07T07:53:23;16.90;99.90
19200;DHT22;9732;52.498;5.408;2023-05-07T07:55:51;17.00;99.90
19200;DHT22;9732;52.498;5.408;2023-05-07T07:58:18;17.10;99.90
19200;DHT22;9732;52.498;5.408;2023-05-07T08:00:51;17.10;99.90
19200;DHT22;9732;52.498;5.408;2023-05-07T08:03:18;17.20;99.90
19200;DHT22;9732;52.498;5.408;2023-05-07T08:05:45;17.30;99.90
19200;DHT22;9732;52.498;5.408;2023-05-07T08:08:12;17.40;99.90
19200;DHT22;9732;52.498;5.408;2023-05-07T08:10:39;17.40;99.90
19200;DHT22;9732;52.498;5.408;2023-05-07T08:13:06;17.50;99.90
19200;DHT22;9732;52.498;5.408;2023-05-07T08:15:35;17.60;99.90
19200;DHT22;9732;52.498;5.408;2023-05-07T08:18:03;17.60;99.90
19200;DHT22;9732;52.498;5.408;2023-05-07T08:20:31;17.60;99.90
19200;DHT22;9732;52.498;5.408;2023-05-07T08:23:01;17.60;99.90
19200;DHT22;9732;52.498;5.408;2023-05-07T08:25:28;17.70;99.90
19200;DHT22;9732;52.498;5.408;2023-05-07T08:28:01;17.80;99.90
19200;DHT22;9732;52.498;5.408;2023-05-07T08:30:29;17.90;99.90
19200;DHT22;9732;52.498;5.408;2023-05-07T08:32:57;17.90;99.90
19200;DHT22;9732;52.498;5.408;2023-05-07T08:35:25;18.00;99.90
19200;DHT22;9732;52.498;5.408;2023-05-07T08:37:53;18.00;99.90
19200;DHT22;9732;52.498;5.408;2023-05-07T08:40:23;18.10;99.90
19200;DHT22;9732;52.498;5.408;2023-05-07T08:42:52;18.10;99.90
19200;DHT22;9732;52.498;5.408;2023-05-07T08:45:21;18.10;99.90
19200;DHT22;9732;52.498;5.408;2023-05-07T08:47:52;18.30;99.90
19200;DHT22;9732;52.498;5.408;2023-05-07T08:50:21;18.30;99.90
19200;DHT22;9732;52.498;5.408;2023-05-07T08:52:49;18.10;99.90
19200;DHT22;9732;52.498;5.408;2023-05-07T08:55:17;18.20;99.90
19200;DHT22;9732;52.498;5.408;2023-05-07T08:57:45;18.20;99.90
19200;DHT22;9732;52.498;5.408;2023-05-07T09:00:13;18.20;99.90
19200;DHT22;9732;52.498;5.408;2023-05-07T09:02:41;18.50;99.90
19200;DHT22;9732;52.498;5.408;2023-05-07T09:05:08;18.70;99.90
19200;DHT22;9732;52.498;5.408;2023-05-07T09:07:36;18.90;99.90
19200;DHT22;9732;52.498;5.408;2023-05-07T09:10:07;19.00;99.90
19200;DHT22;9732;52.498;5.408;2023-05-07T09:12:34;19.10;99.90
19200;DHT22;9732;52.498;5.408;2023-05-07T09:15:03;19.10;99.90
19200;DHT22;9732;52.498;5.408;2023-05-07T09:17:30;19.10;99.90
19200;DHT22;9732;52.498;5.408;2023-05-07T09:20:03;19.10;99.90
19200;DHT22;9732;52.498;5.408;2023-05-07T09:22:31;19.30;99.90
19200;DHT22;9732;52.498;5.408;2023-05-07T09:24:58;19.20;99.90
19200;DHT22;9732;52.498;5.408;2023-05-07T09:27:28;19.10;99.90
19200;DHT22;9732;52.498;5.408;2023-05-07T09:29:55;19.10;99.90
19200;DHT22;9732;52.498;5.408;2023-05-07T09:32:23;19.10;99.90
19200;DHT22;9732;52.498;5.408;2023-05-07T09:34:52;19.10;99.90
19200;DHT22;9732;52.498;5.408;2023-05-07T09:37:19;19.10;99.90
19200;DHT22;9732;52.498;5.408;2023-05-07T09:39:48;19.10;99.90
19200;DHT22;9732;52.498;5.408;2023-05-07T09:42:15;19.00;99.90
19200;DHT22;9732;52.498;5.408;2023-05-07T09:44:44;19.00;99.90
19200;DHT22;9732;52.498;5.408;2023-05-07T09:47:11;19.00;99.90
19200;DHT22;9732;52.498;5.408;2023-05-07T09:49:47;18.90;99.90
19200;DHT22;9732;52.498;5.408;2023-05-07T09:52:15;18.90;99.90
19200;DHT22;9732;52.498;5.408;2023-05-07T09:54:43;19.00;99.90
19200;DHT22;9732;52.498;5.408;2023-05-07T09:57:12;19.30;99.90
19200;DHT22;9732;52.498;5.408;2023-05-07T09:59:41;19.70;99.90
19200;DHT22;9732;52.498;5.408;2023-05-07T10:02:11;19.90;99.90
19200;DHT22;9732;52.498;5.408;2023-05-07T10:04:39;19.90;99.90
19200;DHT22;9732;52.498;5.408;2023-05-07T10:07:08;19.90;99.90
19200;DHT22;9732;52.498;5.408;2023-05-07T10:09:36;19.90;99.90
19200;DHT22;9732;52.498;5.408;2023-05-07T10:12:05;19.70;99.90
19200;DHT22;9732;52.498;5.408;2023-05-07T10:14:32;19.60;99.90
19200;DHT22;9732;52.498;5.408;2023-05-07T10:17:02;19.50;99.90
19200;DHT22;9732;52.498;5.408;2023-05-07T10:19:31;19.60;99.90
19200;DHT22;9732;52.498;5.408;2023-05-07T10:22:03;19.70;99.90
19200;DHT22;9732;52.498;5.408;2023-05-07T10:24:33;19.80;99.90
19200;DHT22;9732;52.498;5.408;2023-05-07T10:27:04;20.20;99.90
19200;DHT22;9732;52.498;5.408;2023-05-07T10:29:38;20.90;99.90
19200;DHT22;9732;52.498;5.408;2023-05-07T10:32:19;21.60;99.90
19200;DHT22;9732;52.498;5.408;2023-05-07T10:34:54;22.30;99.90
19200;DHT22;9732;52.498;5.408;2023-05-07T10:37:25;22.80;99.90
19200;DHT22;9732;52.498;5.408;2023-05-07T10:39:52;23.00;99.90
19200;DHT22;9732;52.498;5.408;2023-05-07T10:42:19;22.90;99.90
19200;DHT22;9732;52.498;5.408;2023-05-07T10:44:46;22.50;99.90
19200;DHT22;9732;52.498;5.408;2023-05-07T10:47:16;22.10;99.90
19200;DHT22;9732;52.498;5.408;2023-05-07T10:50:21;22.10;99.90
19200;DHT22;9732;52.498;5.408;2023-05-07T10:53:22;22.50;99.90
19200;DHT22;9732;52.498;5.408;2023-05-07T10:56:24;22.70;99.90
19200;DHT22;9732;52.498;5.408;2023-05-07T10:58:53;23.20;99.90
19200;DHT22;9732;52.498;5.408;2023-05-07T11:01:51;23.70;99.90
19200;DHT22;9732;52.498;5.408;2023-05-07T11:04:20;24.40;99.90
19200;DHT22;9732;52.498;5.408;2023-05-07T11:07:27;25.00;99.90
19200;DHT22;9732;52.498;5.408;2023-05-07T11:10:05;25.10;99.90
19200;DHT22;9732;52.498;5.408;2023-05-07T11:12:52;25.10;99.90
19200;DHT22;9732;52.498;5.408;2023-05-07T11:15:40;25.50;99.90
19200;DHT22;9732;52.498;5.408;2023-05-07T11:18:09;26.00;99.90
19200;DHT22;9732;52.498;5.408;2023-05-07T11:20:48;26.10;99.90
19200;DHT22;9732;52.498;5.408;2023-05-07T11:23:57;26.20;99.90
19200;DHT22;9732;52.498;5.408;2023-05-07T11:26:27;26.30;99.90
19200;DHT22;9732;52.498;5.408;2023-05-07T11:28:56;26.30;99.90
19200;DHT22;9732;52.498;5.408;2023-05-07T11:31:27;25.90;99.90
19200;DHT22;9732;52.498;5.408;2023-05-07T11:33:55;25.90;99.90
19200;DHT22;9732;52.498;5.408;2023-05-07T11:36:24;25.80;99.90
19200;DHT22;9732;52.498;5.408;2023-05-07T11:38:51;25.60;99.90
19200;DHT22;9732;52.498;5.408;2023-05-07T11:41:20;25.30;99.90
19200;DHT22;9732;52.498;5.408;2023-05-07T11:43:54;25.10;99.90
19200;DHT22;9732;52.498;5.408;2023-05-07T11:46:22;25.20;99.90
19200;DHT22;9732;52.498;5.408;2023-05-07T11:48:50;25.30;99.90
19200;DHT22;9732;52.498;5.408;2023-05-07T11:51:22;25.40;99.90
19200;DHT22;9732;52.498;5.408;2023-05-07T11:53:49;25.60;99.90
19200;DHT22;9732;52.498;5.408;2023-05-07T11:56:18;25.60;99.90
19200;DHT22;9732;52.498;5.408;2023-05-07T11:58:47;25.40;99.90
19200;DHT22;9732;52.498;5.408;2023-05-07T12:01:16;25.40;99.90
19200;DHT22;9732;52.498;5.408;2023-05-07T12:03:46;25.60;99.90
19200;DHT22;9732;52.498;5.408;2023-05-07T12:06:16;25.60;99.90
19200;DHT22;9732;52.498;5.408;2023-05-07T12:08:45;25.90;99.90
19200;DHT22;9732;52.498;5.408;2023-05-07T12:11:15;26.00;99.90
19200;DHT22;9732;52.498;5.408;2023-05-07T12:13:45;26.30;99.90
19200;DHT22;9732;52.498;5.408;2023-05-07T12:16:12;26.60;99.90
19200;DHT22;9732;52.498;5.408;2023-05-07T12:18:41;27.00;99.90
19200;DHT22;9732;52.498;5.408;2023-05-07T12:21:08;27.10;99.90
19200;DHT22;9732;52.498;5.408;2023-05-07T12:23:36;26.90;99.90
19200;DHT22;9732;52.498;5.408;2023-05-07T12:26:05;26.90;99.90
19200;DHT22;9732;52.498;5.408;2023-05-07T12:28:36;26.90;99.90
19200;DHT22;9732;52.498;5.408;2023-05-07T12:31:07;26.30;99.90
19200;DHT22;9732;52.498;5.408;2023-05-07T12:33:35;25.60;99.90
19200;DHT22;9732;52.498;5.408;2023-05-07T12:36:05;25.10;99.90
19200;DHT22;9732;52.498;5.408;2023-05-07T12:38:36;25.00;99.90
19200;DHT22;9732;52.498;5.408;2023-05-07T12:41:04;25.00;99.90
19200;DHT22;9732;52.498;5.408;2023-05-07T12:43:32;24.90;99.90
19200;DHT22;9732;52.498;5.408;2023-05-07T12:46:01;25.10;99.90
19200;DHT22;9732;52.498;5.408;2023-05-07T12:48:29;25.10;99.90
19200;DHT22;9732;52.498;5.408;2023-05-07T12:50:58;24.90;99.90
19200;DHT22;9732;52.498;5.408;2023-05-07T12:53:27;24.70;99.90
19200;DHT22;9732;52.498;5.408;2023-05-07T12:55:55;24.80;99.90
19200;DHT22;9732;52.498;5.408;2023-05-07T12:58:27;24.60;99.90
19200;DHT22;9732;52.498;5.408;2023-05-07T13:00:55;24.70;99.90
19200;DHT22;9732;52.498;5.408;2023-05-07T13:03:26;25.10;99.90
19200;DHT22;9732;52.498;5.408;2023-05-07T13:05:55;25.50;99.90
19200;DHT22;9732;52.498;5.408;2023-05-07T13:08:29;25.60;99.90
19200;DHT22;9732;52.498;5.408;2023-05-07T13:10:57;25.80;99.90
19200;DHT22;9732;52.498;5.408;2023-05-07T13:13:25;25.70;99.90
19200;DHT22;9732;52.498;5.408;2023-05-07T13:15:52;25.60;99.90
19200;DHT22;9732;52.498;5.408;2023-05-07T13:18:19;25.60;99.90
19200;DHT22;9732;52.498;5.408;2023-05-07T13:20:47;25.90;99.90
19200;DHT22;9732;52.498;5.408;2023-05-07T13:23:15;26.00;99.90
19200;DHT22;9732;52.498;5.408;2023-05-07T13:25:41;25.60;99.90
19200;DHT22;9732;52.498;5.408;2023-05-07T13:28:15;25.10;99.90
19200;DHT22;9732;52.498;5.408;2023-05-07T13:30:43;24.70;99.90
19200;DHT22;9732;52.498;5.408;2023-05-07T13:33:10;24.40;99.90
19200;DHT22;9732;52.498;5.408;2023-05-07T13:35:37;24.10;99.90
19200;DHT22;9732;52.498;5.408;2023-05-07T13:38:04;23.80;99.90
19200;DHT22;9732;52.498;5.408;2023-05-07T13:40:32;23.60;99.90
19200;DHT22;9732;52.498;5.408;2023-05-07T13:43:00;23.40;99.90
19200;DHT22;9732;52.498;5.408;2023-05-07T13:45:27;23.30;99.90
19200;DHT22;9732;52.498;5.408;2023-05-07T13:47:56;23.30;99.90
19200;DHT22;9732;52.498;5.408;2023-05-07T13:50:23;23.20;99.90
19200;DHT22;9732;52.498;5.408;2023-05-07T13:52:52;23.10;99.90
19200;DHT22;9732;52.498;5.408;2023-05-07T13:55:19;23.10;99.90
19200;DHT22;9732;52.498;5.408;2023-05-07T13:57:47;23.00;99.90
19200;DHT22;9732;52.498;5.408;2023-05-07T14:00:14;22.80;99.90
19200;DHT22;9732;52.498;5.408;2023-05-07T14:02:41;22.70;99.90
19200;DHT22;9732;52.498;5.408;2023-05-07T14:05:09;22.50;99.90
19200;DHT22;9732;52.498;5.408;2023-05-07T14:07:35;22.30;99.90
19200;DHT22;9732;52.498;5.408;2023-05-07T14:10:03;22.10;99.90
19200;DHT22;9732;52.498;5.408;2023-05-07T14:12:30;22.00;99.90
19200;DHT22;9732;52.498;5.408;2023-05-07T14:14:58;21.90;99.90
19200;DHT22;9732;52.498;5.408;2023-05-07T14:17:25;21.80;99.90
19200;DHT22;9732;52.498;5.408;2023-05-07T14:19:52;21.70;99.90
19200;DHT22;9732;52.498;5.408;2023-05-07T14:22:20;21.50;99.90
19200;DHT22;9732;52.498;5.408;2023-05-07T14:24:48;21.40;99.90
19200;DHT22;9732;52.498;5.408;2023-05-07T14:27:15;21.30;99.90
19200;DHT22;9732;52.498;5.408;2023-05-07T14:29:41;21.20;99.90
19200;DHT22;9732;52.498;5.408;2023-05-07T14:32:10;21.10;99.90
19200;DHT22;9732;52.498;5.408;2023-05-07T14:34:37;21.00;99.90
19200;DHT22;9732;52.498;5.408;2023-05-07T14:37:04;20.90;99.90
19200;DHT22;9732;52.498;5.408;2023-05-07T14:39:31;20.90;99.90
19200;DHT22;9732;52.498;5.408;2023-05-07T14:41:58;20.80;99.90
19200;DHT22;9732;52.498;5.408;2023-05-07T14:44:25;20.70;99.90
19200;DHT22;9732;52.498;5.408;2023-05-07T14:46:52;20.70;99.90
19200;DHT22;9732;52.498;5.408;2023-05-07T14:49:21;20.60;99.90
19200;DHT22;9732;52.498;5.408;2023-05-07T14:51:49;20.60;99.90
19200;DHT22;9732;52.498;5.408;2023-05-07T14:54:16;20.50;99.90
19200;DHT22;9732;52.498;5.408;2023-05-07T14:56:44;20.40;99.90
19200;DHT22;9732;52.498;5.408;2023-05-07T14:59:11;20.50;99.90
19200;DHT22;9732;52.498;5.408;2023-05-07T15:01:38;20.50;99.90
19200;DHT22;9732;52.498;5.408;2023-05-07T15:04:08;20.50;99.90
19200;DHT22;9732;52.498;5.408;2023-05-07T15:06:36;20.40;99.90
19200;DHT22;9732;52.498;5.408;2023-05-07T15:09:04;20.40;99.90
19200;DHT22;9732;52.498;5.408;2023-05-07T15:11:31;20.40;99.90
19200;DHT22;9732;52.498;5.408;2023-05-07T15:13:58;20.30;99.90
19200;DHT22;9732;52.498;5.408;2023-05-07T15:16:25;20.30;99.90
19200;DHT22;9732;52.498;5.408;2023-05-07T15:18:52;20.20;99.90
19200;DHT22;9732;52.498;5.408;2023-05-07T15:21:19;20.30;99.90
19200;DHT22;9732;52.498;5.408;2023-05-07T15:23:48;20.10;99.90
19200;DHT22;9732;52.498;5.408;2023-05-07T15:26:14;20.00;99.90
19200;DHT22;9732;52.498;5.408;2023-05-07T15:28:42;20.00;99.90
19200;DHT22;9732;52.498;5.408;2023-05-07T15:31:09;20.00;99.90
19200;DHT22;9732;52.498;5.408;2023-05-07T15:33:35;19.90;99.90
19200;DHT22;9732;52.498;5.408;2023-05-07T15:36:03;19.80;99.90
19200;DHT22;9732;52.498;5.408;2023-05-07T15:38:31;19.70;99.90
19200;DHT22;9732;52.498;5.408;2023-05-07T15:41:00;19.70;99.90
19200;DHT22;9732;52.498;5.408;2023-05-07T15:43:28;19.70;99.90
19200;DHT22;9732;52.498;5.408;2023-05-07T15:45:55;19.70;99.90
19200;DHT22;9732;52.498;5.408;2023-05-07T15:48:21;19.60;99.90
19200;DHT22;9732;52.498;5.408;2023-05-07T15:50:49;19.60;99.90
19200;DHT22;9732;52.498;5.408;2023-05-07T15:53:17;19.60;99.90